Skip Navigation Links Skip Navigation Links

Current Weather

Moffett Federal Airfield, Mountain View, Calif.

For information only: do not use for flight planning or navigation.
Latest weather
Observation time Friday, December 3, 2021 2:35 AM PST
Local time Friday, December 3, 2021 2:51 AM PST
Flight conditions Low Instrument Meteorological Conditions
Winds
Wind direction West (270°)
Wind speed 5 mph
Visibility 1.75 mi.
Present weather mist
Sky condition
Ceiling 400 ft. overcast
Cloud layer overcast 400 ft.
Temperature 52°F
Dewpoint 52°F
Altimeter 30.12 in.Hg
Derived measurements
Relative humidity 100%
Density altitude -487 ft.
Remarks
Fully automated report.
Automated weather observing station with precipitation discriminator.
METAR KNUQ 031035Z AUTO 27004KT 1 3/4SM BR OVC004 11/11 A3012 RMK AO2

Settings

Location code

InnerDrive.Weather 4.0.6770.0 Release CLR 4.0.30319.42000
Copyright ©2018 Inner Drive Technology. All rights reserved. Portions Copyright ©1986-2018 David Braverman.

Find weather

Site navigation


Skip Navigation Links

Place info

Page info

PayPal - The safer, easier way to pay online!

Return home.

Copyright ©2021 Inner Drive Technology. Purveyors of fine, hand-crafted computer software. Page printed 2021-12-03T10:51:26 UTC.